Time;durP1;ratioP1;P1;durP2;ratioP2;P2;SDS_P1;SDS_P2;PMS_P1;PMS_P2;Temp;Humidity;BMP_temperature;BMP_pressure;BME280_temperature;BME280_humidity;BME280_pressure;Samples;Min_cycle;Max_cycle;Signal;HPM_P1;HPM_P2
2022/03/15 00:02:13;;;;;;;35.10;20.40;;;;;;;5.36;100.00;102628.09;5237645;28;20033;-67
2022/03/15 00:04:44;;;;;;;38.47;20.13;;;;;;;5.39;100.00;102634.19;5236376;28;20111;-67
2022/03/15 00:07:16;;;;;;;31.02;19.55;;;;;;;5.42;100.00;102633.22;5241533;28;20025;-67
2022/03/15 00:09:47;;;;;;;33.30;19.88;;;;;;;5.32;100.00;102619.38;5238714;28;20387;-67
2022/03/15 00:12:19;;;;;;;35.00;21.58;;;;;;;5.35;100.00;102627.25;5241704;28;20021;-67
2022/03/15 00:14:50;;;;;;;33.78;21.17;;;;;;;5.38;100.00;102621.84;5253876;28;20053;-67
2022/03/15 00:17:23;;;;;;;35.90;21.13;;;;;;;5.32;100.00;102622.03;5247984;28;20035;-67
2022/03/15 00:19:54;;;;;;;32.58;20.85;;;;;;;5.36;100.00;102622.81;5240606;28;20140;-66
2022/03/15 00:22:25;;;;;;;35.60;21.10;;;;;;;5.30;100.00;102618.53;5232536;28;20027;-67
2022/03/15 00:24:56;;;;;;;35.13;21.63;;;;;;;5.33;100.00;102614.94;5234157;28;20033;-67
2022/03/15 00:27:28;;;;;;;36.50;21.10;;;;;;;5.37;100.00;102600.72;5239759;28;20052;-67
2022/03/15 00:30:01;;;;;;;35.08;20.67;;;;;;;5.35;100.00;102615.75;5243044;28;20425;-67
2022/03/15 00:32:33;;;;;;;34.42;20.05;;;;;;;5.44;100.00;102605.81;5247589;28;20494;-67
2022/03/15 00:35:07;;;;;;;35.33;21.02;;;;;;;5.36;100.00;102614.88;5234399;28;20056;-67
2022/03/15 00:37:38;;;;;;;31.80;20.35;;;;;;;5.39;100.00;102615.66;5237874;28;20029;-67
2022/03/15 00:40:10;;;;;;;32.50;19.80;;;;;;;5.39;100.00;102615.66;5237125;28;20032;-67
2022/03/15 00:42:48;;;;;;;31.25;20.02;;;;;;;5.41;100.00;102619.13;5239547;28;20056;-67
2022/03/15 00:45:23;;;;;;;30.10;19.25;;;;;;;5.41;100.00;102618.28;5233187;28;20025;-67
2022/03/15 00:47:56;;;;;;;34.72;20.38;;;;;;;5.32;100.00;102615.88;5236965;28;20017;-67
2022/03/15 00:50:32;;;;;;;29.05;18.70;;;;;;;5.45;100.00;102612.00;5240601;28;20100;-67
2022/03/15 00:53:04;;;;;;;30.67;18.73;;;;;;;5.39;100.00;102612.13;5237290;28;20041;-67
2022/03/15 00:55:36;;;;;;;31.73;18.30;;;;;;;5.33;100.00;102609.66;5240718;28;20423;-67
2022/03/15 00:58:10;;;;;;;33.80;18.42;;;;;;;5.29;100.00;102611.50;5240595;28;20150;-67
2022/03/15 01:00:48;;;;;;;30.27;17.73;;;;;;;5.34;100.00;102606.09;5245801;28;20387;-67
2022/03/15 01:03:19;;;;;;;27.65;18.42;;;;;;;5.32;100.00;102600.84;5240903;28;20452;-67
2022/03/15 01:05:51;;;;;;;30.45;18.45;;;;;;;5.27;100.00;102597.44;5238817;28;20029;-67
2022/03/15 01:08:22;;;;;;;27.02;18.77;;;;;;;5.26;100.00;102601.00;5239694;28;20478;-67
2022/03/15 01:10:53;;;;;;;32.70;18.65;;;;;;;5.27;100.00;102600.09;5234258;28;20033;-66
2022/03/15 01:13:25;;;;;;;27.23;17.45;;;;;;;5.25;100.00;102607.19;5239709;28;20483;-67
2022/03/15 01:15:56;;;;;;;25.30;17.17;;;;;;;5.31;100.00;102609.69;5238768;28;20529;-67
2022/03/15 01:18:27;;;;;;;26.95;17.27;;;;;;;5.29;100.00;102608.84;5237152;28;21137;-67
2022/03/15 01:20:58;;;;;;;27.02;17.42;;;;;;;5.34;100.00;102611.41;5244452;28;20035;-67
2022/03/15 01:23:31;;;;;;;25.23;15.93;;;;;;;5.36;100.00;102601.63;5240637;28;20059;-67
2022/03/15 01:26:03;;;;;;;33.10;16.73;;;;;;;5.35;100.00;102597.25;5240499;28;20033;-67
2022/03/15 01:28:34;;;;;;;26.08;16.08;;;;;;;5.28;100.00;102599.19;5233277;28;20034;-67
2022/03/15 01:31:05;;;;;;;25.70;15.35;;;;;;;5.44;100.00;102595.22;5236352;28;20101;-67
2022/03/15 01:33:37;;;;;;;25.27;16.10;;;;;;;5.36;100.00;102591.03;5238955;28;20443;-67
2022/03/15 01:36:09;;;;;;;28.00;16.70;;;;;;;5.34;100.00;102579.63;5240829;28;20079;-67
2022/03/15 01:38:40;;;;;;;29.90;16.13;;;;;;;5.30;100.00;102573.56;5234749;28;20479;-67
2022/03/15 01:41:12;;;;;;;25.08;15.20;;;;;;;5.35;100.00;102573.41;5236643;28;20049;-67
2022/03/15 01:43:43;;;;;;;24.85;15.77;;;;;;;5.29;100.00;102570.03;5235211;28;20033;-67
2022/03/15 01:46:15;;;;;;;25.85;15.52;;;;;;;5.27;100.00;102573.63;5239774;28;20037;-67
2022/03/15 01:48:46;;;;;;;22.25;14.75;;;;;;;5.31;100.00;102567.34;5242479;28;20451;-67
2022/03/15 01:51:18;;;;;;;24.45;14.10;;;;;;;5.28;100.00;102567.44;5239471;28;20087;-67
2022/03/15 01:53:49;;;;;;;30.13;15.95;;;;;;;5.23;100.00;102562.25;5238327;28;20032;-67
2022/03/15 01:56:20;;;;;;;22.55;15.10;;;;;;;5.27;100.00;102563.94;5238879;28;20041;-67
2022/03/15 01:58:52;;;;;;;23.27;15.07;;;;;;;5.27;100.00;102558.63;5240958;28;20095;-67
2022/03/15 02:01:23;;;;;;;23.30;14.45;;;;;;;5.26;99.88;102559.53;5237394;28;20326;-67
2022/03/15 02:03:54;;;;;;;25.33;14.82;;;;;;;5.41;99.93;102567.97;5237841;28;20566;-67
2022/03/15 02:06:25;;;;;;;26.10;15.15;;;;;;;5.26;99.24;102564.81;5248430;28;20025;-67
2022/03/15 02:08:57;;;;;;;25.75;14.27;;;;;;;5.30;99.01;102562.97;5238034;28;20467;-67
2022/03/15 02:11:28;;;;;;;28.98;14.65;;;;;;;5.27;99.26;102561.28;5242167;28;20390;-67
2022/03/15 02:14:00;;;;;;;26.67;15.30;;;;;;;5.30;99.24;102560.31;5248121;28;20127;-67
2022/03/15 02:16:32;;;;;;;24.90;14.82;;;;;;;5.27;99.26;102556.00;5242526;28;20091;-67
2022/03/15 02:19:04;;;;;;;23.92;14.40;;;;;;;5.36;99.42;102554.84;5250249;28;20041;-67
2022/03/15 02:21:36;;;;;;;23.02;13.80;;;;;;;5.35;99.82;102549.59;5242056;28;20044;-67
2022/03/15 02:24:08;;;;;;;22.15;13.77;;;;;;;5.38;100.00;102544.22;5249754;28;20052;-67
2022/03/15 02:26:39;;;;;;;23.08;15.07;;;;;;;5.29;99.92;102546.22;5240921;28;20032;-67
2022/03/15 02:29:10;;;;;;;22.88;14.32;;;;;;;5.36;99.47;102543.41;5247571;28;20079;-67
2022/03/15 02:31:42;;;;;;;25.52;15.05;;;;;;;5.28;99.13;102533.03;5236195;28;20387;-67
2022/03/15 02:34:16;;;;;;;22.10;14.00;;;;;;;5.38;99.56;102536.28;5236248;28;20032;-67
2022/03/15 02:36:47;;;;;;;20.52;13.88;;;;;;;5.29;98.70;102530.34;5251700;28;20077;-67
2022/03/15 02:39:19;;;;;;;21.17;13.73;;;;;;;5.32;98.29;102536.47;5249274;28;20025;-67
2022/03/15 02:41:50;;;;;;;21.15;12.93;;;;;;;5.38;98.26;102534.50;5249481;28;20411;-67
2022/03/15 02:44:22;;;;;;;25.23;13.13;;;;;;;5.35;98.36;102531.06;5240783;28;20116;-67
2022/03/15 02:46:53;;;;;;;21.50;13.02;;;;;;;5.37;98.30;102537.19;5240827;28;20040;-67
2022/03/15 02:49:24;;;;;;;20.10;12.70;;;;;;;5.44;98.05;102530.81;5243230;28;20045;-67
2022/03/15 02:51:56;;;;;;;20.77;12.93;;;;;;;5.36;98.11;102527.53;5253049;28;20033;-67
2022/03/15 02:54:27;;;;;;;22.35;13.10;;;;;;;5.39;97.87;102519.47;5249158;28;20371;-67
2022/03/15 02:56:58;;;;;;;18.38;12.38;;;;;;;5.36;97.47;102522.22;5254595;28;20490;-67
2022/03/15 02:59:31;;;;;;;25.88;14.43;;;;;;;5.37;97.72;102510.72;5242559;28;20037;-67
2022/03/15 03:02:03;;;;;;;24.05;13.13;;;;;;;5.41;97.99;102512.41;5246306;28;20040;-67
2022/03/15 03:04:34;;;;;;;24.00;12.70;;;;;;;5.37;97.12;102505.41;5253158;28;20031;-67
2022/03/15 03:07:06;;;;;;;25.67;13.30;;;;;;;5.41;98.39;102499.16;5243701;28;20025;-67
2022/03/15 03:09:38;;;;;;;21.67;12.55;;;;;;;5.41;98.05;102485.94;5248322;28;20348;-67
2022/03/15 03:12:10;;;;;;;22.83;12.20;;;;;;;5.47;97.68;102488.38;5252851;28;20061;-67
2022/03/15 03:14:41;;;;;;;20.80;12.50;;;;;;;5.48;97.53;102485.72;5238211;28;20046;-67
2022/03/15 03:17:13;;;;;;;20.80;12.80;;;;;;;5.40;97.97;102490.31;5238895;28;20033;-67
2022/03/15 03:19:44;;;;;;;26.85;12.60;;;;;;;5.44;97.96;102486.69;5234335;28;20166;-67
2022/03/15 03:22:16;;;;;;;21.80;12.55;;;;;;;5.46;97.15;102476.91;5235310;28;20032;-67
2022/03/15 03:24:48;;;;;;;23.60;12.18;;;;;;;5.40;97.55;102484.19;5235447;28;20029;-67
2022/03/15 03:27:20;;;;;;;20.42;12.82;;;;;;;5.38;97.47;102478.06;5238388;28;20408;-67
2022/03/15 03:29:51;;;;;;;21.75;11.95;;;;;;;5.45;97.25;102475.19;5234779;28;20039;-67
2022/03/15 03:32:22;;;;;;;20.88;12.40;;;;;;;5.37;97.73;102471.91;5237826;28;20033;-67
2022/03/15 03:34:55;;;;;;;18.63;12.00;;;;;;;5.38;97.98;102478.91;5232158;28;20029;-67
2022/03/15 03:37:26;;;;;;;18.92;12.57;;;;;;;5.37;97.49;102476.31;5228374;28;20041;-67
2022/03/15 03:39:58;;;;;;;21.85;12.23;;;;;;;5.33;97.41;102464.97;5232089;28;20080;-67
2022/03/15 03:42:29;;;;;;;20.92;12.10;;;;;;;5.37;96.72;102477.19;5238223;28;20033;-67
2022/03/15 03:45:00;;;;;;;20.70;11.75;;;;;;;5.40;96.77;102474.44;5234045;28;20087;-67
2022/03/15 03:47:32;;;;;;;18.83;12.02;;;;;;;5.33;97.58;102467.63;5236547;28;20072;-67
2022/03/15 03:50:09;;;;;;;21.52;12.02;;;;;;;5.42;96.44;102469.97;5231560;28;20029;-67
2022/03/15 03:52:41;;;;;;;19.73;12.10;;;;;;;5.34;96.89;102477.28;5228905;28;20025;-67
2022/03/15 03:55:12;;;;;;;21.83;12.27;;;;;;;5.29;96.46;102464.19;5231343;28;20118;-67
2022/03/15 03:57:43;;;;;;;18.55;11.90;;;;;;;5.36;97.15;102464.00;5236868;28;20040;-67
2022/03/15 04:00:16;;;;;;;19.02;11.18;;;;;;;5.37;97.06;102463.97;5259782;28;20037;-67
2022/03/15 04:02:47;;;;;;;21.45;11.88;;;;;;;5.29;96.59;102461.53;5241023;28;20048;-67
2022/03/15 04:05:20;;;;;;;20.13;11.82;;;;;;;5.25;96.72;102462.53;5228605;28;20034;-67
2022/03/15 04:07:51;;;;;;;21.45;12.68;;;;;;;5.23;96.91;102469.63;5229823;28;20136;-67
2022/03/15 04:10:22;;;;;;;18.00;11.55;;;;;;;5.24;96.48;102466.09;5229510;28;20031;-67
2022/03/15 04:12:55;;;;;;;19.45;11.10;;;;;;;5.26;96.37;102460.75;5229918;28;20105;-67
2022/03/15 04:15:26;;;;;;;19.98;11.68;;;;;;;5.20;96.70;102466.22;5230483;28;20053;-67
2022/03/15 04:17:57;;;;;;;16.38;10.50;;;;;;;5.17;96.39;102476.88;5229733;28;20040;-67
2022/03/15 04:20:31;;;;;;;20.70;11.35;;;;;;;5.15;96.68;102468.97;5230216;28;20033;-67
2022/03/15 04:23:02;;;;;;;20.17;11.60;;;;;;;5.16;96.91;102473.38;5230873;28;20033;-67
2022/03/15 04:25:34;;;;;;;19.30;11.50;;;;;;;5.14;96.47;102475.19;5230878;28;20022;-67
2022/03/15 04:28:05;;;;;;;17.90;11.55;;;;;;;5.18;96.98;102474.19;5237843;28;20045;-67
2022/03/15 04:30:37;;;;;;;14.52;10.77;;;;;;;5.17;97.38;102476.88;5235003;28;20029;-67
2022/03/15 04:33:08;;;;;;;20.50;11.63;;;;;;;5.23;97.25;102476.69;5230925;28;20398;-67
2022/03/15 04:35:39;;;;;;;20.70;11.48;;;;;;;5.24;97.31;102475.81;5226541;28;20082;-67
2022/03/15 04:38:10;;;;;;;23.48;13.27;;;;;;;5.21;97.54;102476.75;5226934;28;20566;-67
2022/03/15 04:40:42;;;;;;;18.25;12.23;;;;;;;5.29;97.29;102479.16;5227123;28;20029;-67
2022/03/15 04:43:13;;;;;;;18.67;12.70;;;;;;;5.29;97.78;102466.84;5227811;28;20037;-67
2022/03/15 04:45:44;;;;;;;19.15;11.68;;;;;;;5.28;97.10;102466.88;5232559;28;20032;-67
2022/03/15 04:48:16;;;;;;;20.40;13.05;;;;;;;5.29;97.18;102464.19;5232742;28;20035;-67
2022/03/15 04:50:47;;;;;;;22.05;12.13;;;;;;;5.32;97.49;102462.34;5245301;28;20028;-67
2022/03/15 04:53:19;;;;;;;21.23;12.75;;;;;;;5.24;97.12;102454.63;5237772;28;20080;-67
2022/03/15 04:55:50;;;;;;;19.90;12.38;;;;;;;5.21;97.21;102458.22;5233267;28;20041;-67
2022/03/15 04:58:23;;;;;;;19.98;12.02;;;;;;;5.27;96.84;102460.72;5235382;28;20821;-67
2022/03/15 05:00:54;;;;;;;18.13;11.77;;;;;;;5.17;97.04;102455.72;5237291;28;20047;-67
2022/03/15 05:03:25;;;;;;;21.92;12.82;;;;;;;5.14;96.88;102451.38;5232624;28;20029;-67
2022/03/15 05:05:57;;;;;;;17.15;12.00;;;;;;;5.14;97.53;102454.03;5234459;28;21051;-67
2022/03/15 05:08:28;;;;;;;23.70;12.40;;;;;;;5.25;97.78;102446.66;5244554;28;20032;-67
2022/03/15 05:11:06;;;;;;;20.05;11.85;;;;;;;5.20;98.27;102445.91;5238687;28;20706;-67
2022/03/15 05:13:47;;;;;;;18.08;11.63;;;;;;;5.22;97.36;102445.88;5244364;28;20048;-67
2022/03/15 05:16:21;;;;;;;21.48;12.50;;;;;;;5.16;97.61;102446.91;5237916;28;20513;-67
2022/03/15 05:18:54;;;;;;;21.13;11.77;;;;;;;5.15;97.07;102441.66;5235546;28;20033;-67
2022/03/15 05:21:25;;;;;;;21.25;11.30;;;;;;;5.06;97.35;102442.78;5237380;28;20033;-67
2022/03/15 05:23:56;;;;;;;16.98;11.13;;;;;;;5.05;97.28;102439.25;5235955;28;20506;-67
2022/03/15 05:26:28;;;;;;;17.00;11.57;;;;;;;5.07;97.31;102447.16;5231565;28;20071;-67
2022/03/15 05:28:59;;;;;;;20.38;12.13;;;;;;;5.18;97.89;102446.84;5238477;28;20124;-67
2022/03/15 05:31:31;;;;;;;21.77;11.68;;;;;;;5.12;97.80;102447.91;5230923;28;20067;-67
2022/03/15 05:34:02;;;;;;;18.42;11.48;;;;;;;5.07;98.33;102440.09;5237687;28;20031;-67
2022/03/15 05:36:34;;;;;;;15.85;10.70;;;;;;;5.19;97.88;102438.00;5236919;28;20033;-67
2022/03/15 05:39:05;;;;;;;17.58;11.35;;;;;;;5.07;97.91;102420.72;5232470;28;20570;-67
2022/03/15 05:41:40;;;;;;;18.02;10.90;;;;;;;5.09;98.24;102427.69;5231742;28;20112;-67
2022/03/15 05:44:12;;;;;;;19.45;11.50;;;;;;;5.06;97.30;102430.44;5236105;28;20040;-67
2022/03/15 05:46:44;;;;;;;19.92;11.65;;;;;;;5.07;97.05;102420.72;5234205;28;20040;-67
2022/03/15 05:49:15;;;;;;;21.10;12.60;;;;;;;5.08;97.33;102419.78;5238070;28;20061;-67
2022/03/15 05:51:46;;;;;;;18.80;11.77;;;;;;;5.00;97.10;102417.34;5235153;28;20043;-67
2022/03/15 05:54:17;;;;;;;21.17;12.82;;;;;;;5.06;97.28;102414.56;5239452;28;20029;-67
2022/03/15 05:56:49;;;;;;;20.63;11.85;;;;;;;5.13;97.55;102414.38;5249376;28;20025;-67
2022/03/15 05:59:20;;;;;;;20.92;12.07;;;;;;;5.18;97.15;102409.81;5250964;28;20080;-67
2022/03/15 06:01:51;;;;;;;26.55;12.50;;;;;;;5.22;97.19;102414.97;5240980;28;20083;-67
2022/03/15 06:04:26;;;;;;;22.63;12.18;;;;;;;5.20;97.22;102408.88;5239042;28;20098;-67
2022/03/15 06:06:57;;;;;;;21.90;13.35;;;;;;;5.18;97.10;102416.00;5236845;28;20044;-67
2022/03/15 06:09:29;;;;;;;23.38;12.98;;;;;;;5.16;97.58;102415.16;5237585;28;20052;-67
2022/03/15 06:12:00;;;;;;;20.02;12.35;;;;;;;5.09;97.11;102416.25;5238921;28;20032;-67
2022/03/15 06:14:31;;;;;;;18.65;11.57;;;;;;;5.19;97.38;102417.72;5236487;28;20041;-67
2022/03/15 06:17:04;;;;;;;22.23;11.98;;;;;;;5.25;97.85;102412.25;5235077;28;20086;-67
2022/03/15 06:19:35;;;;;;;19.08;11.95;;;;;;;5.17;97.37;102414.25;5237549;28;20033;-67
2022/03/15 06:22:07;;;;;;;22.77;12.63;;;;;;;5.24;97.55;102414.94;5269964;28;20525;-67
2022/03/15 06:24:38;;;;;;;19.92;12.77;;;;;;;5.27;97.70;102413.09;5236356;28;20132;-67
2022/03/15 06:27:09;;;;;;;20.08;12.30;;;;;;;5.30;97.33;102404.19;5240762;28;20033;-67
2022/03/15 06:29:41;;;;;;;18.02;12.70;;;;;;;5.33;97.56;102412.03;5242365;28;21074;-67
2022/03/15 06:32:13;;;;;;;19.02;12.82;;;;;;;5.32;97.28;102410.28;5243029;28;20120;-67
2022/03/15 06:34:44;;;;;;;17.15;11.55;;;;;;;5.31;96.95;102411.19;5241249;28;20036;-67
2022/03/15 06:37:15;;;;;;;22.77;12.48;;;;;;;5.34;98.12;102410.25;5243110;28;20442;-67
2022/03/15 06:39:47;;;;;;;21.80;12.15;;;;;;;5.44;97.60;102409.06;5246271;28;20035;-67
2022/03/15 06:42:18;;;;;;;18.80;11.75;;;;;;;5.49;96.81;102401.84;5242929;28;20030;-67
2022/03/15 06:44:49;;;;;;;21.15;12.05;;;;;;;5.45;97.43;102408.16;5242556;28;20021;-67
2022/03/15 06:47:21;;;;;;;19.02;11.68;;;;;;;5.48;96.58;102397.47;5242337;28;20030;-67
2022/03/15 06:49:52;;;;;;;18.83;12.57;;;;;;;5.57;96.14;102401.63;5244198;28;20032;-67
2022/03/15 06:52:23;;;;;;;20.73;12.63;;;;;;;5.50;96.70;102392.97;5243465;28;20548;-67
2022/03/15 06:54:55;;;;;;;29.50;13.38;;;;;;;5.56;95.56;102390.16;5238550;28;20033;-67
2022/03/15 06:57:26;;;;;;;18.38;12.20;;;;;;;5.59;95.41;102383.91;5245855;28;21046;-67
2022/03/15 06:59:59;;;;;;;23.63;12.23;;;;;;;5.64;94.86;102379.34;5242874;28;20112;-67
2022/03/15 07:02:31;;;;;;;23.00;12.73;;;;;;;5.65;94.96;102381.91;5256909;28;20060;-67
2022/03/15 07:05:03;;;;;;;23.42;12.45;;;;;;;5.64;95.31;102395.22;5242115;28;20117;-67
2022/03/15 07:07:34;;;;;;;26.75;13.70;;;;;;;5.70;94.94;102387.94;5250941;28;20399;-67
2022/03/15 07:10:07;;;;;;;23.52;12.80;;;;;;;5.68;94.07;102386.28;5243878;28;20044;-67
2022/03/15 07:12:38;;;;;;;29.33;13.30;;;;;;;5.76;94.19;102386.03;5254647;28;20530;-67
2022/03/15 07:15:10;;;;;;;18.95;10.55;;;;;;;5.83;93.25;102387.53;5240214;28;20052;-67
2022/03/15 07:17:50;;;;;;;16.75;10.40;;;;;;;5.87;93.01;102386.56;5242140;28;20029;-67
2022/03/15 07:20:23;;;;;;;19.52;10.75;;;;;;;5.89;92.25;102382.09;5244283;28;20082;-67
2022/03/15 07:22:54;;;;;;;19.00;10.93;;;;;;;5.90;93.29;102376.72;5242324;28;20526;-67
2022/03/15 07:25:26;;;;;;;17.50;10.65;;;;;;;5.97;93.89;102380.06;5242636;28;20037;-67
2022/03/15 07:27:57;;;;;;;19.25;10.40;;;;;;;6.01;92.42;102378.19;5243539;28;20025;-67
2022/03/15 07:30:28;;;;;;;18.58;10.05;;;;;;;6.04;92.24;102373.66;5249776;28;20091;-67
2022/03/15 07:32:59;;;;;;;16.98;10.52;;;;;;;6.08;92.10;102375.28;5242411;28;20398;-67
2022/03/15 07:35:31;;;;;;;14.77;9.70;;;;;;;6.11;91.77;102370.81;5243864;28;20071;-67
2022/03/15 07:38:02;;;;;;;20.00;10.32;;;;;;;6.17;90.74;102374.09;5242215;28;20039;-67
2022/03/15 07:40:34;;;;;;;22.70;10.45;;;;;;;6.28;91.73;102373.75;5242655;28;20029;-67
2022/03/15 07:43:05;;;;;;;18.70;9.93;;;;;;;6.29;90.79;102367.56;5242795;28;20188;-67
2022/03/15 07:45:36;;;;;;;16.92;9.27;;;;;;;6.30;90.03;102371.91;5238162;28;20021;-67
2022/03/15 07:48:08;;;;;;;18.77;9.68;;;;;;;6.35;90.79;102374.41;5244681;28;20089;-67
2022/03/15 07:50:39;;;;;;;19.13;9.43;;;;;;;6.40;90.83;102372.47;5240953;28;20463;-67
2022/03/15 07:53:10;;;;;;;15.90;8.85;;;;;;;6.43;90.32;102380.31;5243969;28;20033;-67
2022/03/15 07:55:42;;;;;;;22.63;9.55;;;;;;;6.48;90.31;102371.28;5238131;28;20029;-67
2022/03/15 07:58:13;;;;;;;17.15;10.27;;;;;;;6.50;90.18;102367.72;5241856;28;20046;-67
2022/03/15 08:00:46;;;;;;;16.65;9.35;;;;;;;6.54;89.41;102369.31;5244768;28;20031;-67
2022/03/15 08:03:18;;;;;;;15.90;9.60;;;;;;;6.59;91.49;102370.91;5247178;28;20029;-67
2022/03/15 08:05:50;;;;;;;15.73;9.25;;;;;;;6.66;89.57;102366.25;5246146;28;20025;-67
2022/03/15 08:08:21;;;;;;;17.92;9.23;;;;;;;6.67;88.72;102363.56;5247846;28;20056;-67
2022/03/15 08:10:52;;;;;;;18.23;8.80;;;;;;;6.70;89.16;102359.91;5249676;28;20490;-67
2022/03/15 08:13:24;;;;;;;22.10;8.50;;;;;;;6.80;89.23;102352.50;5244537;28;20391;-67
2022/03/15 08:15:55;;;;;;;20.08;8.48;;;;;;;6.79;88.28;102350.78;5246575;28;20066;-67
2022/03/15 08:18:26;;;;;;;14.57;7.68;;;;;;;6.83;87.60;102353.25;5249394;28;20136;-67
2022/03/15 08:20:59;;;;;;;17.95;7.93;;;;;;;6.91;88.23;102346.81;5249722;28;20083;-67
2022/03/15 08:23:30;;;;;;;18.08;8.07;;;;;;;6.92;87.63;102337.91;5251568;28;20065;-67
2022/03/15 08:26:02;;;;;;;14.85;7.47;;;;;;;6.96;87.54;102344.81;5252129;28;20067;-67
2022/03/15 08:28:33;;;;;;;16.80;7.20;;;;;;;7.02;87.40;102340.16;5250660;28;20033;-67
2022/03/15 08:31:04;;;;;;;19.25;7.90;;;;;;;7.01;88.00;102329.59;5253401;28;20036;-67
2022/03/15 08:33:36;;;;;;;15.43;7.55;;;;;;;7.12;89.02;102337.19;5249166;28;20067;-67
2022/03/15 08:36:07;;;;;;;14.07;7.20;;;;;;;7.18;87.25;102335.13;5247489;28;20434;-67
2022/03/15 08:38:38;;;;;;;12.10;6.68;;;;;;;7.22;86.32;102333.25;5254746;28;20037;-67
2022/03/15 08:41:11;;;;;;;15.43;6.40;;;;;;;7.33;85.75;102330.19;5249816;28;20127;-67
2022/03/15 08:43:42;;;;;;;13.57;6.93;;;;;;;7.39;86.48;102332.59;5253617;28;20257;-67
2022/03/15 08:46:14;;;;;;;12.27;6.10;;;;;;;7.50;85.87;102330.38;5251128;28;20124;-67
2022/03/15 08:48:45;;;;;;;13.35;6.45;;;;;;;7.54;86.01;102334.63;5252869;28;20060;-67
2022/03/15 08:51:16;;;;;;;8.90;5.80;;;;;;;7.62;85.29;102335.19;5251048;28;20036;-67
2022/03/15 08:53:47;;;;;;;14.40;6.32;;;;;;;7.65;85.91;102321.78;5245181;28;20029;-67
2022/03/15 08:56:19;;;;;;;13.43;5.97;;;;;;;7.69;84.74;102326.97;5250790;28;20033;-67
2022/03/15 08:58:50;;;;;;;14.57;6.35;;;;;;;7.80;83.67;102322.94;5248063;28;20083;-67
2022/03/15 09:01:22;;;;;;;11.95;5.85;;;;;;;7.81;83.97;102322.03;5244184;28;20059;-67
2022/03/15 09:03:53;;;;;;;12.60;6.53;;;;;;;7.92;84.79;102318.94;5250480;28;20727;-67
2022/03/15 09:06:24;;;;;;;12.45;6.03;;;;;;;7.90;82.75;102320.78;5250436;28;20037;-67
2022/03/15 09:08:56;;;;;;;14.02;6.93;;;;;;;8.07;82.58;102314.75;5247722;28;20644;-67
2022/03/15 09:11:30;;;;;;;13.20;6.28;;;;;;;8.07;81.79;102305.91;5253187;28;20033;-67
2022/03/15 09:14:01;;;;;;;14.38;6.35;;;;;;;8.15;82.10;102301.13;5247504;28;20052;-66
2022/03/15 09:16:33;;;;;;;12.82;6.45;;;;;;;8.27;83.41;102308.59;5250960;28;20028;-67
2022/03/15 09:19:04;;;;;;;15.90;6.30;;;;;;;8.23;83.80;102309.66;5253592;28;20035;-67
2022/03/15 09:21:36;;;;;;;14.23;6.60;;;;;;;8.33;83.30;102308.31;5257715;28;21100;-67
2022/03/15 09:24:07;;;;;;;11.98;6.63;;;;;;;8.34;81.62;102317.16;5254937;28;20029;-67
2022/03/15 09:26:42;;;;;;;11.68;5.63;;;;;;;8.38;82.74;102316.09;5250794;28;20108;-68
2022/03/15 09:29:13;;;;;;;10.65;5.78;;;;;;;8.49;81.59;102316.50;5255439;28;20025;-67
2022/03/15 09:31:45;;;;;;;13.15;6.10;;;;;;;8.55;82.40;102315.38;5251526;28;20475;-68
2022/03/15 09:34:17;;;;;;;13.70;6.18;;;;;;;8.54;81.49;102319.00;5252164;28;20416;-68
2022/03/15 09:36:49;;;;;;;10.77;6.00;;;;;;;8.58;80.10;102318.78;5254558;28;20020;-68
2022/03/15 09:39:22;;;;;;;15.27;6.07;;;;;;;8.60;80.71;102313.38;5253372;28;20141;-68
2022/03/15 09:41:55;;;;;;;12.65;6.10;;;;;;;8.73;80.05;102316.38;5252445;28;20020;-68
2022/03/15 09:44:28;;;;;;;15.02;5.80;;;;;;;8.81;78.07;102325.72;5253386;28;20104;-68
2022/03/15 09:47:03;;;;;;;14.02;6.07;;;;;;;8.85;76.66;102315.81;5252445;28;20028;-68
2022/03/15 09:49:36;;;;;;;14.30;6.45;;;;;;;8.84;77.77;102308.78;5253019;28;20028;-68
2022/03/15 09:52:09;;;;;;;11.00;5.97;;;;;;;8.90;76.43;102312.91;5258306;28;20052;-67
2022/03/15 09:54:41;;;;;;;13.13;6.03;;;;;;;9.03;77.71;102308.75;5252855;28;20024;-68
2022/03/15 09:57:13;;;;;;;12.75;6.43;;;;;;;9.05;76.88;102311.34;5254247;28;20036;-68
2022/03/15 09:59:44;;;;;;;12.98;5.88;;;;;;;9.16;77.30;102307.25;5252220;28;20025;-67
2022/03/15 10:02:15;;;;;;;11.88;6.22;;;;;;;9.26;76.20;102306.81;5250285;28;20044;-68
2022/03/15 10:04:49;;;;;;;14.80;5.93;;;;;;;9.31;74.94;102308.31;5248414;28;20074;-68
2022/03/15 10:07:20;;;;;;;10.85;6.47;;;;;;;9.44;75.45;102305.09;5252364;28;20025;-68
2022/03/15 10:09:52;;;;;;;12.35;5.75;;;;;;;9.50;75.08;102302.97;5252661;28;20036;-68
2022/03/15 10:12:23;;;;;;;10.60;5.63;;;;;;;9.48;73.98;102298.69;5255781;28;20475;-68
2022/03/15 10:14:56;;;;;;;12.50;6.13;;;;;;;9.61;75.59;102294.47;5250091;28;20782;-68
2022/03/15 10:17:28;;;;;;;12.30;6.47;;;;;;;9.62;75.77;102298.84;5253827;28;20032;-68
2022/03/15 10:20:01;;;;;;;11.13;5.85;;;;;;;9.66;75.60;102287.09;5250503;28;20043;-68
2022/03/15 10:22:32;;;;;;;10.43;5.68;;;;;;;9.73;72.96;102291.19;5253653;28;20028;-68
2022/03/15 10:25:04;;;;;;;13.05;6.03;;;;;;;9.88;74.74;102289.56;5250614;28;20511;-68
2022/03/15 10:27:35;;;;;;;18.73;6.45;;;;;;;9.99;77.22;102284.56;5249542;28;20173;-68
2022/03/15 10:30:08;;;;;;;21.27;8.00;;;;;;;9.96;74.88;102283.84;5251968;28;20115;-68
2022/03/15 10:32:39;;;;;;;15.18;5.88;;;;;;;10.20;73.76;102281.72;5252267;28;20029;-68
2022/03/15 10:35:11;;;;;;;12.60;6.32;;;;;;;10.21;74.94;102280.78;5248876;28;20390;-68
2022/03/15 10:37:43;;;;;;;13.52;6.40;;;;;;;10.22;72.23;102279.84;5254378;28;20032;-68
2022/03/15 10:40:15;;;;;;;13.80;5.68;;;;;;;10.30;70.37;102267.00;5245458;28;20037;-68
2022/03/15 10:42:47;;;;;;;13.55;6.40;;;;;;;10.37;70.87;102270.19;5253727;28;20090;-68
2022/03/15 10:45:21;;;;;;;14.05;6.10;;;;;;;10.37;73.25;102264.84;5254105;28;20036;-68
2022/03/15 10:47:54;;;;;;;13.85;5.65;;;;;;;10.50;70.04;102259.75;5250119;28;20037;-68
2022/03/15 10:50:26;;;;;;;13.43;5.90;;;;;;;10.54;72.13;102254.13;5250422;28;20024;-68
2022/03/15 10:52:57;;;;;;;13.88;5.82;;;;;;;10.60;70.53;102255.63;5250463;28;20487;-67
2022/03/15 10:55:29;;;;;;;12.05;5.50;;;;;;;10.66;70.16;102251.75;5251128;28;20040;-67
2022/03/15 10:58:05;;;;;;;13.88;6.72;;;;;;;10.67;71.97;102246.34;5250919;28;20182;-68
2022/03/15 11:00:39;;;;;;;13.02;5.88;;;;;;;10.76;72.07;102242.31;5250602;28;20044;-68
2022/03/15 11:03:13;;;;;;;11.40;5.38;;;;;;;10.74;71.65;102239.72;5254762;28;20035;-67
2022/03/15 11:05:47;;;;;;;14.27;5.38;;;;;;;10.85;72.41;102244.47;5254310;28;20065;-68
2022/03/15 11:08:21;;;;;;;10.10;5.30;;;;;;;10.82;72.73;102243.78;5254931;28;20592;-68
2022/03/15 11:10:53;;;;;;;12.60;5.28;;;;;;;10.89;70.12;102237.16;5249795;28;20241;-68
2022/03/15 11:13:29;;;;;;;9.73;4.85;;;;;;;10.98;70.74;102236.63;5250037;28;20140;-68
2022/03/15 11:16:04;;;;;;;13.23;5.20;;;;;;;11.05;70.92;102230.00;5253227;28;20060;-67
2022/03/15 11:18:37;;;;;;;13.40;5.88;;;;;;;11.05;72.50;102224.66;5252004;28;20055;-68
2022/03/15 11:21:09;;;;;;;13.77;5.28;;;;;;;11.10;72.59;102219.06;5254427;28;20110;-67
2022/03/15 11:23:43;;;;;;;13.88;6.03;;;;;;;11.24;71.99;102218.25;5249270;28;20112;-68
2022/03/15 11:26:21;;;;;;;12.35;5.40;;;;;;;11.41;69.52;102211.94;5252937;28;20127;-68
2022/03/15 11:28:52;;;;;;;12.85;5.32;;;;;;;11.32;71.70;102208.88;5249946;28;20091;-68
2022/03/15 11:31:24;;;;;;;10.48;5.45;;;;;;;11.45;68.69;102209.03;5254151;28;20025;-68
2022/03/15 11:33:58;;;;;;;11.60;4.97;;;;;;;11.46;70.23;102201.88;5251942;28;20036;-68
2022/03/15 11:36:29;;;;;;;11.48;4.93;;;;;;;11.57;69.18;102194.94;5251520;28;20082;-68
2022/03/15 11:39:01;;;;;;;10.38;4.93;;;;;;;11.57;70.27;102194.09;5250068;28;20120;-68